aviador You're here:

KGCN Decoded Metar

GRAND CANYON in AZ, USA
Report Time2018-01-17 00:54:00
UTC Time2018-01-17 01:23:21
Flight Rules vfr VFR
Wind040° at 04 kt
W.Decomp.*RWY 03: 4.0 kt HW 0.3 kt LCW
W.Rank040° ranks 10
Current wind is below 040° avg. (6.0)
Visibility9999 m
Phenomena:N/A
Clouds:Scattered 100 Hf
Expected CloudBase > 4,000 ft AGL from Temp-Dew spread
CeilingNone
Temp03°C (ISA +1)
Dew Point-7°C (48% RH)
AAT-1.2°C
QNH1026 hPa
Density Alt6,371 ft
Elevation6,614 ft
Report Wrong Elevation
Raw Report
KGCN 170054Z 04004KT 10SM SCT100 03/M07 A3029 RMK AO2 SLP238
T00331072=

Extra information for KGCN:More info

Metar Taf Metar & Taf Last 4 Metars F.Rules Stats Wind Profile Meteogram Temp Stats Airport Information Weather charts Add Link Nearby VenuesMetar ALERT Operation Metar Decoded Social comments

AIRNAV info for KGCN